createdAt,value
2018-07-01T00:03:16.745Z,54.70
2018-07-01T00:08:14.484Z,54.70
2018-07-01T00:10:43.583Z,54.60
2018-07-01T00:13:12.630Z,55.00
2018-07-01T00:15:41.716Z,55.00
2018-07-01T00:20:39.479Z,54.80
2018-07-01T00:23:08.531Z,54.80
2018-07-01T00:25:37.604Z,56.20
2018-07-01T00:28:06.652Z,55.70
2018-07-01T00:30:35.716Z,55.50
2018-07-01T00:33:04.767Z,55.60
2018-07-01T00:35:33.831Z,55.90
2018-07-01T00:38:02.896Z,57.00
2018-07-01T00:40:31.960Z,56.90
2018-07-01T00:45:29.727Z,57.40
2018-07-01T00:47:58.780Z,57.30
2018-07-01T00:50:27.847Z,57.80
2018-07-01T00:52:56.901Z,58.10
2018-07-01T00:55:25.988Z,57.80
2018-07-01T00:57:55.048Z,58.10
2018-07-01T01:00:33.828Z,58.30
2018-07-01T01:03:03.760Z,58.50
2018-07-01T01:05:33.320Z,58.30
2018-07-01T01:08:02.375Z,58.50
2018-07-01T01:10:31.443Z,59.10
2018-07-01T01:13:00.483Z,59.30
2018-07-01T01:15:29.576Z,59.80
2018-07-01T01:17:58.626Z,59.70
2018-07-01T01:20:27.690Z,60.10
2018-07-01T01:22:56.731Z,60.60
2018-07-01T01:32:51.848Z,61.40
2018-07-01T01:35:20.895Z,62.30
2018-07-01T01:40:21.467Z,61.80
2018-07-01T01:42:56.632Z,61.60
2018-07-01T01:45:30.080Z,61.50
2018-07-01T01:50:38.772Z,61.60
2018-07-01T01:53:12.984Z,61.60
2018-07-01T01:55:46.992Z,61.80
2018-07-01T01:58:20.272Z,61.90
2018-07-01T02:00:55.707Z,61.60
2018-07-01T02:03:30.135Z,61.70
2018-07-01T02:06:11.349Z,61.80
2018-07-01T02:08:43.383Z,61.70
2018-07-01T02:11:12.447Z,61.60
2018-07-01T02:16:19.716Z,61.90
2018-07-01T02:18:48.769Z,62.30
2018-07-01T02:21:17.839Z,62.50
2018-07-01T02:26:18.295Z,62.30
2018-07-01T02:31:16.084Z,62.50
2018-07-01T02:33:45.128Z,62.40
2018-07-01T02:36:14.204Z,63.90
2018-07-01T02:38:43.253Z,62.90
2018-07-01T02:41:12.321Z,62.90
2018-07-01T02:43:41.375Z,63.00
2018-07-01T02:46:10.439Z,64.10
2018-07-01T02:48:39.470Z,64.00
2018-07-01T02:51:08.532Z,64.30
2018-07-01T02:53:37.617Z,64.30
2018-07-01T02:56:06.631Z,64.90
2018-07-01T03:03:33.092Z,64.70
2018-07-01T03:06:02.128Z,65.00
2018-07-01T03:08:31.198Z,65.30
2018-07-01T03:11:00.236Z,65.90
2018-07-01T03:13:29.300Z,66.20
2018-07-01T03:15:58.355Z,66.70
2018-07-01T03:18:27.420Z,67.20
2018-07-01T03:20:56.472Z,67.70
2018-07-01T03:23:25.531Z,67.80
2018-07-01T03:25:55.680Z,68.40
2018-07-01T03:33:22.112Z,67.30
2018-07-01T03:35:51.164Z,66.60
2018-07-01T03:38:20.219Z,66.90
2018-07-01T03:40:49.268Z,66.50
2018-07-01T03:43:18.336Z,66.20
2018-07-01T03:48:16.107Z,66.30
2018-07-01T03:53:13.839Z,66.60
2018-07-01T03:55:42.888Z,66.10
2018-07-01T03:58:11.939Z,66.10
2018-07-01T04:00:40.979Z,66.10
2018-07-01T04:03:10.034Z,66.00
2018-07-01T04:05:39.075Z,66.50
2018-07-01T04:10:36.925Z,66.50
2018-07-01T04:13:05.992Z,65.30
2018-07-01T04:15:35.067Z,65.20
2018-07-01T04:18:04.488Z,65.60
2018-07-01T04:20:33.527Z,65.90
2018-07-01T04:23:02.596Z,65.50
2018-07-01T04:25:31.648Z,64.20
2018-07-01T04:30:29.404Z,64.20
2018-07-01T04:32:58.475Z,64.50
2018-07-01T04:35:27.520Z,64.10
2018-07-01T04:40:25.291Z,63.70
2018-07-01T04:42:54.363Z,63.70
2018-07-01T04:45:23.407Z,64.10
2018-07-01T04:47:52.480Z,63.90
2018-07-01T04:52:50.223Z,63.40
2018-07-01T04:55:19.335Z,62.50
2018-07-01T04:57:48.364Z,62.80
2018-07-01T05:02:46.095Z,61.60
2018-07-01T05:05:15.168Z,61.00
2018-07-01T05:07:44.265Z,60.90
2018-07-01T05:10:13.316Z,60.30
2018-07-01T05:12:42.390Z,60.20
2018-07-01T05:15:11.463Z,59.70
2018-07-01T05:17:40.528Z,59.50
2018-07-01T05:20:09.610Z,58.70
2018-07-01T05:27:36.749Z,56.90
2018-07-01T05:30:06.160Z,56.90
2018-07-01T05:32:35.222Z,57.40
2018-07-01T05:35:04.407Z,56.20
2018-07-01T05:37:33.491Z,56.60
2018-07-01T05:40:02.540Z,55.20
2018-07-01T05:42:31.611Z,55.70
2018-07-01T05:45:00.660Z,54.90
2018-07-01T05:47:29.724Z,54.60
2018-07-01T05:49:58.795Z,54.20
2018-07-01T05:52:27.944Z,53.60
2018-07-01T05:54:57.080Z,53.40
2018-07-01T05:57:26.131Z,52.70
2018-07-01T05:59:55.208Z,52.10
2018-07-01T06:02:24.319Z,52.70
2018-07-01T06:04:53.392Z,52.10
2018-07-01T06:07:22.440Z,52.00
2018-07-01T06:14:49.111Z,50.70
2018-07-01T06:19:47.083Z,50.00
2018-07-01T06:22:16.136Z,50.00
2018-07-01T06:24:45.196Z,49.80
2018-07-01T06:27:14.248Z,49.80
2018-07-01T06:29:43.320Z,49.10
2018-07-01T06:32:12.600Z,48.70
2018-07-01T06:34:41.687Z,48.60
2018-07-01T06:37:10.751Z,48.40
2018-07-01T06:39:39.819Z,48.50
2018-07-01T06:42:08.865Z,47.80
2018-07-01T06:47:06.604Z,47.80
2018-07-01T06:49:35.676Z,47.50
2018-07-01T06:52:04.741Z,47.00
2018-07-01T06:57:02.476Z,46.10
2018-07-01T06:59:31.548Z,45.10
2018-07-01T07:02:00.605Z,44.80
2018-07-01T07:06:58.384Z,44.30
2018-07-01T07:11:57.088Z,43.40
2018-07-01T07:14:26.169Z,42.90
2018-07-01T07:16:55.215Z,42.10
2018-07-01T07:19:24.284Z,41.80
2018-07-01T07:24:22.240Z,41.80
2018-07-01T07:26:51.287Z,41.10
2018-07-01T07:29:21.038Z,40.90
2018-07-01T07:31:50.096Z,39.10
2018-07-01T07:34:19.191Z,39.30
2018-07-01T07:36:48.240Z,38.70
2018-07-01T07:39:17.320Z,39.80
2018-07-01T07:41:46.363Z,39.90
2018-07-01T07:44:15.436Z,38.40
2018-07-01T07:46:44.476Z,37.20
2018-07-01T07:49:13.536Z,38.40
2018-07-01T07:54:11.277Z,36.80
2018-07-01T07:56:40.340Z,36.70
2018-07-01T07:59:09.515Z,35.90
2018-07-01T08:04:07.286Z,34.90
2018-07-01T08:06:36.332Z,34.20
2018-07-01T08:09:07.368Z,32.00
2018-07-01T08:11:36.408Z,32.60
2018-07-01T08:14:05.500Z,33.50
2018-07-01T08:16:34.572Z,34.60
2018-07-01T08:19:03.643Z,33.50
2018-07-01T08:21:32.943Z,33.60
2018-07-01T08:24:02.000Z,33.50
2018-07-01T08:26:31.047Z,32.40
2018-07-01T08:29:00.164Z,33.00
2018-07-01T08:31:29.196Z,32.30
2018-07-01T08:36:27.016Z,33.20
2018-07-01T08:38:56.080Z,31.50
2018-07-01T08:41:25.127Z,30.60
2018-07-01T08:43:54.220Z,30.80
2018-07-01T08:46:23.306Z,32.80
2018-07-01T08:48:52.460Z,31.50
2018-07-01T08:56:18.885Z,31.10
2018-07-01T08:58:47.931Z,32.60
2018-07-01T09:03:45.675Z,31.00
2018-07-01T09:06:14.799Z,30.70
2018-07-01T09:13:41.212Z,30.20
2018-07-01T09:16:10.303Z,30.90
2018-07-01T09:18:39.349Z,28.70
2018-07-01T09:21:08.416Z,29.50
2018-07-01T09:23:37.499Z,29.70
2018-07-01T09:26:06.563Z,31.20
2018-07-01T09:28:35.608Z,31.70
2018-07-01T09:31:04.676Z,31.00
2018-07-01T09:33:33.804Z,30.70
2018-07-01T09:36:02.939Z,29.50
2018-07-01T09:41:00.731Z,28.60
2018-07-01T09:43:29.857Z,30.10
2018-07-01T09:50:57.156Z,28.70
2018-07-01T09:53:26.208Z,29.30
2018-07-01T09:58:23.955Z,28.80
2018-07-01T10:00:53.040Z,28.70
2018-07-01T10:03:22.084Z,28.10
2018-07-01T10:08:19.823Z,29.50
2018-07-01T10:10:48.901Z,29.70
2018-07-01T10:13:17.943Z,27.60
2018-07-01T10:15:47.020Z,27.90
2018-07-01T10:18:16.064Z,29.30
2018-07-01T10:20:45.132Z,29.30
2018-07-01T10:25:42.928Z,28.60
2018-07-01T10:28:12.148Z,29.50
2018-07-01T10:30:41.282Z,29.10
2018-07-01T10:33:10.324Z,29.00
2018-07-01T10:35:39.391Z,27.80
2018-07-01T10:38:08.440Z,26.80
2018-07-01T10:40:37.499Z,28.90
2018-07-01T10:48:04.047Z,28.10
2018-07-01T10:50:33.116Z,27.40
2018-07-01T10:53:02.160Z,26.50
2018-07-01T11:00:28.584Z,26.60
2018-07-01T11:02:57.862Z,27.70
2018-07-01T11:05:26.963Z,27.40
2018-07-01T11:07:56.259Z,27.30
2018-07-01T11:10:25.484Z,26.90
2018-07-01T11:12:54.684Z,26.70
2018-07-01T11:15:23.807Z,27.50
2018-07-01T11:17:52.851Z,26.50
2018-07-01T11:20:21.969Z,27.00
2018-07-01T11:22:50.983Z,27.40
2018-07-01T11:25:20.053Z,27.70
2018-07-01T11:27:49.100Z,27.80
2018-07-01T11:32:47.751Z,27.80
2018-07-01T11:35:16.836Z,26.10
2018-07-01T11:37:45.871Z,27.10
2018-07-01T11:40:14.926Z,26.70
2018-07-01T11:42:43.992Z,26.70
2018-07-01T11:47:41.723Z,27.10
2018-07-01T11:50:10.763Z,26.90
2018-07-01T11:57:37.700Z,27.60
2018-07-01T12:00:07.108Z,26.40
2018-07-01T12:02:36.176Z,26.50
2018-07-01T12:05:16.661Z,25.70
2018-07-01T12:07:34.700Z,26.20
2018-07-01T12:10:03.775Z,28.00
2018-07-01T12:12:32.835Z,27.20
2018-07-01T12:17:30.591Z,27.00
2018-07-01T12:19:59.648Z,27.10
2018-07-01T12:22:28.712Z,26.50
2018-07-01T12:29:55.164Z,28.70
2018-07-01T12:32:24.239Z,27.20
2018-07-01T12:34:53.417Z,26.40
2018-07-01T12:37:22.392Z,25.90
2018-07-01T12:39:51.436Z,26.30
2018-07-01T12:42:20.559Z,26.50
2018-07-01T12:44:49.564Z,26.50
2018-07-01T12:49:47.305Z,25.50
2018-07-01T12:52:16.368Z,23.80
2018-07-01T12:54:45.416Z,22.70
2018-07-01T13:02:12.063Z,23.30
2018-07-01T13:04:41.104Z,22.90
2018-07-01T13:09:39.099Z,20.30
2018-07-01T13:14:37.492Z,19.40
2018-07-01T13:19:35.227Z,18.30
2018-07-01T13:22:04.298Z,17.60
2018-07-01T13:24:33.342Z,18.90
2018-07-01T13:27:02.416Z,19.50
2018-07-01T13:29:31.589Z,19.10
2018-07-01T13:32:00.660Z,19.30
2018-07-01T13:34:29.704Z,18.80
2018-07-01T13:36:58.776Z,18.10
2018-07-01T13:39:27.825Z,19.40
2018-07-01T13:41:56.896Z,18.90
2018-07-01T13:44:25.940Z,18.40
2018-07-01T13:46:55.014Z,18.90
2018-07-01T13:49:24.055Z,19.60
2018-07-01T13:51:53.123Z,20.00
2018-07-01T13:54:22.176Z,19.60
2018-07-01T13:56:51.317Z,18.00
2018-07-01T13:59:20.319Z,18.00
2018-07-01T14:01:49.471Z,17.70
2018-07-01T14:04:18.460Z,17.00
2018-07-01T14:06:47.537Z,16.50
2018-07-01T14:09:16.588Z,16.40
2018-07-01T14:14:14.348Z,16.10
2018-07-01T14:16:43.439Z,14.90
2018-07-01T14:19:12.496Z,15.30
2018-07-01T14:21:41.563Z,14.30
2018-07-01T14:26:39.812Z,15.00
2018-07-01T14:29:08.859Z,15.30
2018-07-01T14:31:37.951Z,14.80
2018-07-01T14:39:08.647Z,14.60
2018-07-01T14:41:37.695Z,14.80
2018-07-01T14:44:06.784Z,16.70
2018-07-01T14:46:36.039Z,15.70
2018-07-01T14:49:05.348Z,15.60
2018-07-01T14:51:34.644Z,14.70
2018-07-01T14:54:03.764Z,15.10
2018-07-01T14:56:32.808Z,15.10
2018-07-01T15:01:30.832Z,15.00
2018-07-01T15:03:59.904Z,14.70
2018-07-01T15:06:28.952Z,14.20
2018-07-01T15:08:58.028Z,15.30
2018-07-01T15:11:27.068Z,15.10
2018-07-01T15:18:53.563Z,13.80
2018-07-01T15:21:22.608Z,13.30
2018-07-01T15:23:51.671Z,13.20
2018-07-01T15:26:20.716Z,13.40
2018-07-01T15:28:49.780Z,13.00
2018-07-01T15:31:18.827Z,12.50
2018-07-01T15:38:45.999Z,13.40
2018-07-01T15:41:15.040Z,13.20
2018-07-01T15:43:44.100Z,14.30
2018-07-01T15:46:13.148Z,13.90
2018-07-01T15:48:42.212Z,14.30
2018-07-01T15:51:11.420Z,14.00
2018-07-01T15:53:40.484Z,13.80
2018-07-01T15:58:38.428Z,13.00
2018-07-01T16:01:07.497Z,13.80
2018-07-01T16:03:36.563Z,12.90
2018-07-01T16:06:05.787Z,12.80
2018-07-01T16:08:34.851Z,12.80
2018-07-01T16:11:03.899Z,13.10
2018-07-01T16:13:32.966Z,12.90
2018-07-01T16:16:02.180Z,12.80
2018-07-01T16:18:31.248Z,12.60
2018-07-01T16:23:29.023Z,12.30
2018-07-01T16:28:37.733Z,12.20
2018-07-01T16:31:06.791Z,12.20
2018-07-01T16:33:35.888Z,12.10
2018-07-01T16:36:04.942Z,12.10
2018-07-01T16:38:34.008Z,12.00
2018-07-01T16:41:03.073Z,11.30
2018-07-01T16:43:32.147Z,11.50
2018-07-01T16:58:25.216Z,12.00
2018-07-01T17:00:54.268Z,12.40
2018-07-01T17:03:23.340Z,12.40
2018-07-01T17:05:52.395Z,12.10
2018-07-01T17:08:21.464Z,12.20
2018-07-01T17:13:19.244Z,11.30
2018-07-01T17:25:48.184Z,11.50
2018-07-01T17:28:17.260Z,11.80
2018-07-01T17:30:46.307Z,12.60
2018-07-01T17:35:49.628Z,12.80
2018-07-01T17:38:18.699Z,12.30
2018-07-01T17:40:47.788Z,12.00
2018-07-01T17:43:16.867Z,12.90
2018-07-01T17:45:46.143Z,12.20
2018-07-01T17:48:15.363Z,12.20
2018-07-01T17:50:44.412Z,12.20
2018-07-01T17:55:47.800Z,12.30
2018-07-01T18:00:45.536Z,12.70
2018-07-01T18:03:14.604Z,12.70
2018-07-01T18:15:38.424Z,13.20
2018-07-01T18:18:07.472Z,13.30
2018-07-01T18:20:36.552Z,13.50
2018-07-01T18:23:35.844Z,13.60
2018-07-01T18:28:15.018Z,13.20
2018-07-01T18:30:32.472Z,13.60
2018-07-01T18:33:01.588Z,13.40
2018-07-01T18:35:31.593Z,14.30
2018-07-01T18:38:00.648Z,14.30
2018-07-01T18:40:29.715Z,14.80
2018-07-01T18:45:27.491Z,15.00
2018-07-01T18:50:25.799Z,17.10
2018-07-01T19:00:20.932Z,20.50
2018-07-01T19:02:49.983Z,21.70
2018-07-01T19:05:19.071Z,22.80
2018-07-01T19:07:48.112Z,23.60
2018-07-01T19:10:17.203Z,24.30
2018-07-01T19:12:46.279Z,24.90
2018-07-01T19:15:15.364Z,24.70
2018-07-01T19:17:44.411Z,26.10
2018-07-01T19:20:13.480Z,26.70
2018-07-01T19:22:42.643Z,26.40
2018-07-01T19:25:11.765Z,26.50
2018-07-01T19:27:40.822Z,27.60
2018-07-01T19:30:09.899Z,27.80
2018-07-01T19:32:38.949Z,28.60
2018-07-01T19:35:08.028Z,29.40
2018-07-01T19:37:37.071Z,29.20
2018-07-01T19:40:06.151Z,30.20
2018-07-01T19:42:35.241Z,30.10
2018-07-01T19:45:04.725Z,31.40
2018-07-01T19:47:33.771Z,30.90
2018-07-01T19:50:02.832Z,31.80
2018-07-01T19:52:31.886Z,31.80
2018-07-01T19:55:00.951Z,32.20
2018-07-01T19:57:30.064Z,32.20
2018-07-01T19:59:59.135Z,32.70
2018-07-01T20:02:28.179Z,33.30
2018-07-01T20:04:57.252Z,33.60
2018-07-01T20:09:55.060Z,34.40
2018-07-01T20:12:24.111Z,34.00
2018-07-01T20:14:53.384Z,34.40
2018-07-01T20:17:22.415Z,34.70
2018-07-01T20:19:51.488Z,35.00
2018-07-01T20:22:20.532Z,35.00
2018-07-01T20:27:18.304Z,36.20
2018-07-01T20:34:44.720Z,37.10
2018-07-01T20:37:13.763Z,37.40
2018-07-01T20:39:42.828Z,36.70
2018-07-01T20:42:11.875Z,37.70
2018-07-01T20:44:40.935Z,38.20
2018-07-01T20:47:09.980Z,38.20
2018-07-01T20:49:39.095Z,38.50
2018-07-01T20:52:08.144Z,38.70
2018-07-01T20:57:05.892Z,39.80
2018-07-01T20:59:34.939Z,39.70
2018-07-01T21:02:04.012Z,39.80
2018-07-01T21:07:01.784Z,40.50
2018-07-01T21:09:30.828Z,40.40
2018-07-01T21:11:59.895Z,40.90
2018-07-01T21:14:28.944Z,41.80
2018-07-01T21:16:58.040Z,42.10
2018-07-01T21:19:27.088Z,42.40
2018-07-01T21:24:25.037Z,43.10
2018-07-01T21:26:54.104Z,43.70
2018-07-01T21:29:23.151Z,43.90
2018-07-01T21:31:52.223Z,44.20
2018-07-01T21:34:21.319Z,44.50
2018-07-01T21:36:50.613Z,44.90
2018-07-01T21:41:48.383Z,45.80
2018-07-01T21:44:17.590Z,46.30
2018-07-01T21:46:46.656Z,46.10
2018-07-01T21:49:16.224Z,46.90
2018-07-01T21:51:45.315Z,47.50
2018-07-01T21:54:14.379Z,47.80
2018-07-01T21:56:43.471Z,47.90
2018-07-01T21:59:12.544Z,48.10
2018-07-01T22:01:41.612Z,48.30
2018-07-01T22:04:10.683Z,48.40
2018-07-01T22:06:45.323Z,48.70
2018-07-01T22:09:14.703Z,48.90
2018-07-01T22:12:01.123Z,49.20
2018-07-01T22:17:03.688Z,49.80
2018-07-01T22:19:32.967Z,49.70
2018-07-01T22:22:02.396Z,49.00
2018-07-01T22:24:32.709Z,49.50
2018-07-01T22:27:01.820Z,49.80
2018-07-01T22:29:30.899Z,50.60
2018-07-01T22:31:59.992Z,50.80
2018-07-01T22:34:29.163Z,50.20
2018-07-01T22:36:58.260Z,50.70
2018-07-01T22:39:28.818Z,51.30
2018-07-01T22:41:59.056Z,51.10
2018-07-01T22:44:28.769Z,50.50
2018-07-01T22:46:57.855Z,51.80
2018-07-01T22:49:27.143Z,52.50
2018-07-01T22:51:56.232Z,52.60
2018-07-01T22:54:25.303Z,53.60
2018-07-01T22:56:54.399Z,53.70
2018-07-01T22:59:23.780Z,53.80
2018-07-01T23:04:26.977Z,54.80
2018-07-01T23:06:56.068Z,54.50
2018-07-01T23:09:25.143Z,55.30
2018-07-01T23:11:54.235Z,55.50
2018-07-01T23:14:23.310Z,54.90
2018-07-01T23:16:52.499Z,55.10
2018-07-01T23:19:21.567Z,54.90
2018-07-01T23:21:50.648Z,54.70
2018-07-01T23:24:19.716Z,54.40
2018-07-01T23:26:48.811Z,54.70
2018-07-01T23:29:17.879Z,54.90
2018-07-01T23:31:46.971Z,55.20
2018-07-01T23:34:16.139Z,55.00
2018-07-01T23:36:45.224Z,56.70
2018-07-01T23:39:14.296Z,56.50
2018-07-01T23:41:43.372Z,55.90
2018-07-01T23:44:12.431Z,57.20
2018-07-01T23:46:41.623Z,57.00
2018-07-01T23:49:10.691Z,58.00
2018-07-01T23:51:39.784Z,58.10
2018-07-01T23:54:08.844Z,58.10
2018-07-01T23:56:37.932Z,58.60
2018-07-01T23:59:07.004Z,58.70
